Have a Safe July 4th! 

Flight Track Log - Related Links

Times and Time Zones

All times are in EDT time to prevent confusion due to time zone crossing. See the EJA951 flight status page for this flight to view local times or setup timezone preferences in your user account.

Time Position Orientation Groundspeed Altitude Reporting Facility
EDT Latitude Longitude Course Direction KTS MPH feet Rate Location/Type
Thu 04:21:52 AM 26.6742 -80.0486 12° North 212 244 2,600  Level Miami Center
Thu 04:22:54 AM 26.7153 -79.9894 52° Northeast 254 292 6,300 4,034 Climbing Miami Center
Thu 04:23:51 AM 26.7647 -79.9233 50° Northeast 265 305 10,600 3,641 Climbing Miami Center
Thu 04:24:51 AM 26.8247 -79.8525 46° Northeast 287 330 13,400 2,341 Climbing Miami Center
Thu 04:25:54 AM 26.9108 -79.8244 16° North 304 350 15,400 1,934 Climbing Miami Center
Thu 04:26:52 AM 26.9969 -79.8033 12° North 325 374 17,300 1,949 Climbing Miami Center
Thu 04:27:00 AM 27.4246 -79.8262 12° North  Level Estimated
Thu 04:27:51 AM 27.0914 -79.7825 11° North 340 391 19,200  Level Miami Center
Thu 04:28:51 AM 27.1961 -79.7572 12° North 345 397 21,400 2,100 Climbing Miami Center
Thu 04:29:51 AM 27.2928 -79.7314 13° North 345 397 23,400 1,934 Climbing Miami Center
Thu 04:30:52 AM 27.3892 -79.7106 11° North 356 410 25,300 1,785 Climbing Miami Center
Thu 04:31:52 AM 27.4817 -79.6869 13° North 356 410 27,000 1,785 Climbing Miami Center
Thu 04:32:53 AM 27.5950 -79.6592 12° North 361 415 28,900 1,770 Climbing Miami Center
Thu 04:33:54 AM 27.7019 -79.6314 13° North 377 434 30,600 1,650 Climbing Miami Center
Thu 04:34:53 AM 27.8108 -79.6058 12° North 382 440 32,200 1,550 Climbing Miami Center
Thu 04:35:54 AM 27.9075 -79.5825 12° North 396 456 33,700 1,475 Climbing Miami Center
Thu 04:36:51 AM 28.0228 -79.5522 13° North 401 461 35,100 1,487 Climbing Miami Center
Thu 04:37:51 AM 28.1444 -79.5222 12° North 414 476 36,600 1,450 Climbing Miami Center
Thu 04:38:51 AM 28.2597 -79.4919 13° North 425 489 38,000 1,488 Climbing Miami Center
Thu 04:39:52 AM 28.3792 -79.4639 12° North 432 497 39,600 1,350 Climbing Miami Center
Thu 04:40:51 AM 28.5008 -79.4361 11° North 432 497 40,700 706 Climbing Miami Center
Thu 04:41:51 AM 28.6203 -79.4033 14° North 432 497 41,000 150 Climbing Miami Center
Thu 04:42:51 AM 28.7483 -79.3708 13° North 444 511 41,000  Level Miami Center
Thu 04:43:51 AM 28.8992 -79.3339 12° North 478 550 41,000  Level Miami Center
Thu 04:44:54 AM 29.0311 -79.3036 11° North 483 556 41,000  Level Miami Center
Thu 04:45:51 AM 29.1611 -79.2661 14° North 489 563 41,000  Level Miami Center
Thu 04:46:52 AM 29.2972 -79.2333 12° North 489 563 41,000  Level Miami Center
Thu 04:48:52 AM 29.5669 -79.1608 13° North 455 524 41,000  Level Jacksonville Center
Thu 04:49:52 AM 29.7017 -79.1317 11° North 489 563 41,000  Level Jacksonville Center
Thu 04:50:52 AM 29.8344 -79.0978 12° North 480 552 41,000  Level Jacksonville Center
Thu 04:51:52 AM 29.9692 -79.0686 11° North 489 563 41,000  Level Jacksonville Center
Thu 04:52:52 AM 30.1039 -79.0344 12° North 484 557 41,000  Level Jacksonville Center
Thu 04:53:52 AM 30.2408 -79.0072 10° North 491 565 41,000  Level Jacksonville Center
Thu 04:54:52 AM 30.3567 -78.9736 14° North 486 559 41,000  Level Jacksonville Center
Thu 04:55:52 AM 30.4850 -78.9419 12° North 486 559 41,000  Level Jacksonville Center
Thu 04:56:52 AM 30.6342 -78.9069 11° North 491 565 41,000  Level Jacksonville Center
Thu 04:57:52 AM 30.7667 -78.8747 12° North 483 556 41,000  Level Jacksonville Center
Thu 04:58:52 AM 30.8994 -78.8425 12° North 482 555 41,000  Level Jacksonville Center
Thu 04:59:52 AM 31.0278 -78.8078 13° North 482 555 41,000  Level Jacksonville Center
Thu 05:00:52 AM 31.1581 -78.7753 12° North 476 548 41,000  Level Jacksonville Center
Thu 05:01:52 AM 31.2886 -78.7431 12° North 476 548 41,000  Level Jacksonville Center
Thu 05:02:52 AM 31.4214 -78.7153 10° North 482 555 41,000  Level Jacksonville Center
Thu 05:03:52 AM 31.5558 -78.6822 12° North 482 555 41,000  Level Jacksonville Center
Thu 05:04:52 AM 31.6819 -78.6472 13° North 472 543 41,000  Level Jacksonville Center
Thu 05:05:52 AM 31.8106 -78.6169 11° North 472 543 41,000  Level Jacksonville Center
Thu 05:06:52 AM 31.9408 -78.5839 12° North 472 543 41,000  Level Jacksonville Center
Thu 05:07:52 AM 32.0711 -78.5486 13° North 472 543 41,000  Level Jacksonville Center
Thu 05:08:52 AM 32.2036 -78.5175 11° North 467 537 41,000  Level Jacksonville Center
Thu 05:09:52 AM 32.3319 -78.4844 12° North 472 543 41,000  Level Jacksonville Center
Thu 05:10:52 AM 32.4622 -78.4486 13° North 472 543 41,000  Level Jacksonville Center
Thu 05:11:52 AM 32.5947 -78.4200 10° North 472 543 41,000  Level Jacksonville Center
Thu 05:12:52 AM 32.7250 -78.3839 13° North 477 549 41,000  Level Jacksonville Center
Thu 05:13:52 AM 32.8553 -78.3525 11° North 477 549 41,000  Level Jacksonville Center
Thu 05:15:39 AM 33.0711 -78.2972 12° North 503 579 41,000  Level Washington Center
Thu 05:16:39 AM 33.2011 -78.2667 11° North 485 558 41,000  Level Washington Center
Thu 05:17:38 AM 33.3292 -78.2308 13° North 474 545 41,000  Level Washington Center
Thu 05:18:38 AM 33.4614 -78.1978 12° North 474 545 41,000  Level Washington Center
Thu 05:19:39 AM 33.5892 -78.1642 12° North 474 545 41,000  Level Washington Center
Thu 05:20:39 AM 33.7192 -78.1333 11° North 469 540 41,000  Level Washington Center
Thu 05:21:38 AM 33.8492 -78.1022 11° North 469 540 41,000  Level Washington Center
Thu 05:22:40 AM 33.9836 -78.0689 12° North 474 545 41,000  Level Washington Center
Thu 05:23:38 AM 34.1158 -78.0250 15° North 474 545 41,000  Level Washington Center
Thu 05:24:38 AM 34.2458 -77.9939 11° North 479 551 41,000  Level Washington Center
Thu 05:25:39 AM 34.3822 -77.9600 12° North 484 557 41,000  Level Washington Center
Thu 05:26:40 AM 34.5267 -77.9214 12° North 484 557 41,000  Level Washington Center
Thu 05:27:37 AM 34.6569 -77.8872 12° North 484 557 41,000  Level Washington Center
Thu 05:28:37 AM 34.7889 -77.8528 12° North 484 557 41,000  Level Washington Center
Thu 05:29:38 AM 34.9044 -77.8156 15° North 479 551 41,000  Level Washington Center
Thu 05:30:38 AM 35.0511 -77.7764 12° North 480 552 41,000  Level Washington Center
Thu 05:31:37 AM 35.1853 -77.7419 12° North 485 558 41,000  Level Washington Center
Thu 05:32:40 AM 35.3153 -77.7047 13° North 485 558 41,000  Level Washington Center
Thu 05:33:40 AM 35.4517 -77.6675 13° North 485 558 41,000  Level Washington Center
Thu 05:34:38 AM 35.5836 -77.6328 12° North 485 558 41,000  Level Washington Center
Thu 05:35:39 AM 35.7158 -77.5978 12° North 485 558 41,000  Level Washington Center
Thu 05:36:37 AM 35.8519 -77.5600 13° North 490 564 41,000  Level Washington Center
Thu 05:37:37 AM 35.9842 -77.5222 13° North 490 564 41,000  Level Washington Center
Thu 05:38:39 AM 36.1161 -77.4869 12° North 490 564 41,000  Level Washington Center
Thu 05:39:40 AM 36.2314 -77.4536 13° North 490 564 41,000  Level Washington Center
Thu 05:40:38 AM 36.3675 -77.4183 12° North 485 558 41,000  Level Washington Center
Thu 05:41:38 AM 36.4994 -77.3825 12° North 485 558 41,000  Level Washington Center
Thu 05:42:39 AM 36.6336 -77.3469 12° North 485 558 41,000  Level Washington Center
Thu 05:43:38 AM 36.7719 -77.3058 13° North 490 564 41,000  Level Washington Center
Thu 05:44:39 AM 36.9058 -77.2672 13° North 490 564 41,000  Level Washington Center
Thu 05:45:39 AM 37.0378 -77.2283 13° North 490 564 41,000  Level Washington Center
Thu 05:46:40 AM 37.1719 -77.1922 12° North 490 564 41,000  Level Washington Center
Thu 05:47:37 AM 37.3039 -77.1533 13° North 490 564 41,000  Level Washington Center
Thu 05:48:38 AM 37.4544 -77.1067 14° North 490 564 41,000  Level Washington Center
Thu 05:49:37 AM 37.5906 -77.0725 11° North 496 571 41,000  Level Washington Center
Thu 05:50:38 AM 37.7225 -77.0331 13° North 490 564 41,000  Level Washington Center
Thu 05:51:38 AM 37.8522 -76.9961 13° North 480 552 41,000  Level Washington Center
Thu 05:52:37 AM 37.9756 -76.9617 12° North 486 559 41,000  Level Washington Center
Thu 05:53:37 AM 38.1075 -76.9217 13° North 486 559 41,000 -350 Level Washington Center
Thu 05:54:37 AM 38.2392 -76.8819 13° North 486 559 40,300 -1,388 Descending Washington Center
Thu 05:55:38 AM 38.3836 -76.8392 13° North 486 559 38,200 -2,016 Descending Washington Center
Thu 05:56:39 AM 38.5175 -76.8017 12° North 486 559 36,200 -1,600 Descending Washington Center
Thu 05:57:38 AM 38.6431 -76.7347 23° Northeast 486 559 35,000 -605 Descending Washington Center
Thu 05:58:38 AM 38.7525 -76.6325 36° Northeast 473 544 35,000  Level Washington Center
Thu 05:59:38 AM 38.8597 -76.5247 38° Northeast 478 550 35,000 -694 Level Washington Center
Thu 06:00:39 AM 38.9689 -76.4192 37° Northeast 483 556 33,600 -2,050 Descending Washington Center
Thu 06:01:38 AM 39.0739 -76.3136 38° Northeast 483 556 30,900 -2,797 Descending Washington Center
Thu 06:02:37 AM 39.1847 -76.2047 37° Northeast 483 556 28,100 -2,700 Descending Washington Center
Thu 06:03:38 AM 39.2875 -76.1092 36° Northeast 489 563 25,500 -2,579 Descending Washington Center
Thu 06:04:38 AM 39.3919 -76.0078 37° Northeast 484 557 22,900 -2,605 Descending Washington Center
Thu 06:07:03 AM 39.6333 -75.7667 38° Northeast 405 466 16,600 -2,517 Descending Philadelphia TRACON
Thu 06:08:03 AM 39.7333 -75.6667 38° Northeast 400 460 14,300 -1,800 Descending Philadelphia TRACON
Thu 06:09:03 AM 39.8167 -75.5833 38° Northeast 392 451 13,000 -650 Descending Philadelphia TRACON
Thu 06:10:03 AM 39.9000 -75.5000 37° Northeast 425 489 13,000  Level Philadelphia TRACON
Thu 06:11:03 AM 40.0000 -75.4167 33° Northeast 411 473 13,000  Level Philadelphia TRACON
Thu 06:12:09 AM 40.1000 -75.3167 37° Northeast 407 468 13,000  Level Philadelphia TRACON
Thu 06:12:51 AM 40.1667 -75.2667 30° Northeast 363 418 13,000 -1,095 Level Philadelphia TRACON
Thu 06:14:26 AM 40.2667 -75.1667 37° Northeast 298 343 10,500 -1,640 Descending New York TRACON
Thu 06:15:32 AM 40.3333 -75.0833 44° Northeast 285 328 8,600 -1,632 Descending New York TRACON
Thu 06:16:20 AM 40.3833 -75.0333 37° Northeast 283 326 7,400 -889 Descending New York TRACON
Thu 06:17:20 AM 40.4333 -74.9500 52° Northeast 281 323 7,000 -947 Descending New York TRACON
Thu 06:18:14 AM 40.4833 -74.8833 45° Northeast 284 327 5,600 -1,444 Descending New York TRACON
Thu 06:19:08 AM 40.5333 -74.8167 45° Northeast 277 319 4,400 -842 Descending New York TRACON
Thu 06:20:08 AM 40.5833 -74.7500 45° Northeast 269 310 4,000 -190 Descending New York TRACON
Thu 06:21:14 AM 40.6500 -74.6833 37° Northeast 276 318 4,000  Level New York TRACON
Thu 06:22:08 AM 40.7000 -74.6333 37° Northeast 271 312 4,000  Level New York TRACON
Thu 06:23:08 AM 40.7500 -74.5667 45° Northeast 266 306 4,000  Level New York TRACON
Thu 06:24:02 AM 40.8000 -74.5000 45° Northeast 267 307 4,000 -526 Level New York TRACON
Thu 06:25:02 AM 40.8500 -74.4333 45° Northeast 265 305 3,000 -500 Descending New York TRACON
Thu 06:26:02 AM 40.9000 -74.3500 52° Northeast 266 306 3,000  Level New York TRACON
Thu 06:26:56 AM 40.9500 -74.2833 45° Northeast 264 304 3,000 -53 Level New York TRACON
Thu 06:27:56 AM 41.0000 -74.2167 45° Northeast 244 281 2,900 -450 Descending New York TRACON
Thu 06:28:56 AM 41.0000 -74.1333 90° East 246 283 2,100 -400 Descending New York TRACON
Thu 06:29:56 AM 41.0000 -74.0667 90° East 194 223 2,100  Level New York TRACON
Thu 06:30:56 AM 40.9667 -74.0000 123° Southeast 199 229 2,100 -50 Level New York TRACON
Thu 06:31:56 AM 40.9333 -73.9833 159° South 174 200 2,000 -400 Descending New York TRACON
Thu 06:32:56 AM 40.9000 -74.0000 201° Southwest 141 162 1,300 -750 Descending New York TRACON
Thu 06:33:56 AM 40.8667 -74.0333 217° Southwest 118 136 500 -800 Descending New York TRACON

Login

Don't have an account? Register now (free) for customized features, flight alerts, and more!